WetterOnline ( https://www.wetteronline.de )

Wetter aktuell Prag

Aktuelles Wetter: Prag - Ruzyne (365m)

6-stündlich | Neueste Meldungen
Ortszeit Temperatur Wetter
Mo, 23.09. 14:00 16.5° C wolkig
Mo, 23.09. 8:00 7.8° C leicht bewölkt
Mo, 23.09. 2:00 7.8° C leicht bewölkt
So, 22.09. 20:00 12.7° C leicht bewölkt
So, 22.09. 14:00 19.1° C fast wolkenlos
So, 22.09. 8:00 8.1° C wolkenlos
So, 22.09. 2:00 8.0° C wolkenlos
Sa, 21.09. 20:00 13.5° C fast wolkenlos
Ortszeit Temperatur Wetter
Mo, 23.09. 15:00 17.1° C wolkig
Mo, 23.09. 14:30 17° C -
Mo, 23.09. 14:00 16.5° C wolkig
Mo, 23.09. 13:30 16° C -
Mo, 23.09. 13:00 15.7° C leicht bewölkt
Mo, 23.09. 12:30 17° C -
Mo, 23.09. 12:00 15.2° C leicht bewölkt
Mo, 23.09. 11:30 13° C -
Ortszeit Relative Feuchte Sichtweite
Mo, 23.09. 14:00 52% 35 km
Mo, 23.09. 8:00 81% 20 km
Mo, 23.09. 2:00 76% 40 km
So, 22.09. 20:00 59% 40 km
So, 22.09. 14:00 39% 50 km
So, 22.09. 8:00 81% 40 km
So, 22.09. 2:00 75% 30 km
Sa, 21.09. 20:00 58% 40 km
Ortszeit Relative Feuchte Sichtweite
Mo, 23.09. 15:00 54% 35 km
Mo, 23.09. 14:30 52% >10 km
Mo, 23.09. 14:00 52% 35 km
Mo, 23.09. 13:30 51% >10 km
Mo, 23.09. 13:00 53% 35 km
Mo, 23.09. 12:30 52% >10 km
Mo, 23.09. 12:00 56% 30 km
Mo, 23.09. 11:30 62% >10 km
Ortszeit Niederschlagsmenge Niederschlagsart
Mo, 23.09. 14:00 0.0 l/m2 in 6 Std. -
Mo, 23.09. 8:00 0.0 l/m2 in 12 Std. -
Mo, 23.09. 2:00 0.0 l/m2 in 6 Std. -
So, 22.09. 20:00 0.0 l/m2 in 12 Std. -
So, 22.09. 14:00 0.0 l/m2 in 6 Std. -
So, 22.09. 8:00 0.0 l/m2 in 12 Std. -
So, 22.09. 2:00 0.0 l/m2 in 6 Std. -
Sa, 21.09. 20:00 0.0 l/m2 in 12 Std. -
Ortszeit Niederschlagsmenge Niederschlagsart
Mo, 23.09. 15:00 0.0 l/m2 in 1 Std. -
Mo, 23.09. 14:30 keine Meldung -
Mo, 23.09. 14:00 0.0 l/m2 in 1 Std. -
Mo, 23.09. 13:30 keine Meldung -
Mo, 23.09. 13:00 0.0 l/m2 in 1 Std. -
Mo, 23.09. 12:30 keine Meldung -
Mo, 23.09. 12:00 0.0 l/m2 in 1 Std. -
Mo, 23.09. 11:30 keine Meldung -
Ortszeit Stärke Spitze Richtung
km/h Bft. km/h Grad Sektor
Mo, 23.09. 14:00 4 1 - 200° S
Mo, 23.09. 8:00 4 1 - 310° NW
Mo, 23.09. 2:00 4 1 - 90° O
So, 22.09. 20:00 14 3 - 120° SO
So, 22.09. 14:00 14 3 - 90° O
So, 22.09. 8:00 18 3 - 80° O
So, 22.09. 2:00 11 2 - 80° O
Sa, 21.09. 20:00 11 2 - 70° O
Ortszeit Stärke Spitze Richtung
km/h Bft. km/h Grad Sektor
Mo, 23.09. 15:00 7 2 - 190° S
Mo, 23.09. 14:30 7 2 - 240° SW
Mo, 23.09. 14:00 4 1 - 200° S
Mo, 23.09. 13:30 6 1 - 170° S
Mo, 23.09. 13:00 4 1 - 200° S
Mo, 23.09. 12:30 6 1 - uml. uml.
Mo, 23.09. 12:00 4 1 - 250° W
Mo, 23.09. 11:30 6 1 - uml. uml.
Ortszeit Untergrenze Bedeckung Gattung
total tief tief mittel hoch
Mo, 23.09. 14:00 4800 m 7/8 3/8 - As Cs
Mo, 23.09. 8:00 4800 m 6/8 4/8 - Ac Ci
Mo, 23.09. 2:00 4500 m 5/8 1/8 - Ac Ci
So, 22.09. 20:00 4500 m 6/8 1/8 - Ac Ci
So, 22.09. 14:00 7800 m 1/8 0/8 - - Ci
So, 22.09. 8:00 - 0/8 0/8 - - -
So, 22.09. 2:00 - 0/8 0/8 - - -
Sa, 21.09. 20:00 7800 m 1/8 0/8 - - Ci
Ortszeit Bedeckungsgrad in Achtel und Wolkenuntergrenze
Mo, 23.09. 15:00 3(4800m) 7(7800m)
Mo, 23.09. 14:30 keine Wolken(unter 1500 m)
Mo, 23.09. 14:00 3(4800m) 7(7800m)
Mo, 23.09. 13:30 keine Wolken(unter 1500 m)
Mo, 23.09. 13:00 3(4800m) 6(7800m)
Mo, 23.09. 12:30 keine Wolken(unter 1500 m)
Mo, 23.09. 12:00 4(4800m) 5(7800m)
Mo, 23.09. 11:30 keine Wolken(unter 1500 m)
Ortszeit Luftdruck NN (hPa) Tendenz (hPa in 3 Std.)
Mo, 23.09. 14:00 1013 - 0,2
Mo, 23.09. 8:00 1014 + 0,6
Mo, 23.09. 2:00 1013 - 0,4
So, 22.09. 20:00 1013 + 0,1
So, 22.09. 14:00 1013 - 2,4
So, 22.09. 8:00 1018 - 0,7
So, 22.09. 2:00 1020 - 0,8
Sa, 21.09. 20:00 1021 - 0,8
Ortszeit Luftdruck NN (hPa) Tendenz (hPa in 3 Std.)
Mo, 23.09. 15:00 1013 - 0,1
Mo, 23.09. 14:30 1014 keine Meldung
Mo, 23.09. 14:00 1013 - 0,2
Mo, 23.09. 13:30 1014 keine Meldung
Mo, 23.09. 13:00 1013 + 0,1
Mo, 23.09. 12:30 1014 keine Meldung
Mo, 23.09. 12:00 1014 + 0,7
Mo, 23.09. 11:30 1014 keine Meldung
Ortszeit Schneehöhe (cm)
Mo, 23.09. 14:00 -
Mo, 23.09. 8:00 -
Mo, 23.09. 2:00 -
So, 22.09. 20:00 -
So, 22.09. 14:00 -
So, 22.09. 8:00 0
So, 22.09. 2:00 -
Sa, 21.09. 20:00 -
Ortszeit Schneehöhe (cm)
Mo, 23.09. 15:00 -
Mo, 23.09. 14:30 -
Mo, 23.09. 14:00 -
Mo, 23.09. 13:30 -
Mo, 23.09. 13:00 -
Mo, 23.09. 12:30 -
Mo, 23.09. 12:00 -
Mo, 23.09. 11:30 -
Link zu dieser Seite / Seite empfehlen

Das Wetter in ...